Historyczne dane pomiarowe

Dodano dane terminowe – wersja testowa.

Dane z okresu 1951-2019

Wersja bazy: 1.34 [2019-03-16, lista zmian], aktualizacja planowana na 2019-04-15

Dane meteo z obszaru Polski uzyskane na podstawie danych udostępnionych przez Instytut Meteorologii i Gospodarki Wodnej – Państwowy Instytut Badawczy.

 

Wybierz Datę:    

       

TemperaturaWilgotnośćWiatrCiśnienieOpadyŚniegCzas trwania zjawisk
 Stacja t tx tn tng RH VA  wxwx mslp ppp RRR   cm mm wxwxwxwxwxwxwx
2014-10-10 13.2 21.5 8.3 6.4-- 5.7----- 0.0------------
2014-10-09 14.8 23.9 7.8 6.1-- 5.0----- 0.0------------
2014-10-08 13.9 19.0 10.7 8.4-- 6.3----- 1.3------------
2014-10-07 12.7 17.5 8.7 7.4-- 6.0----- 0.2------------
2014-10-06 9.5 18.5 2.6 1.2-- 5.3----- 0.0------------
2014-10-05 7.9 16.5 1.9 1.1-- 5.0----- 0.0------------
2014-10-04 8.6 16.9 3.4 2.7-- 5.3----- 0.0------------
2014-10-03 11.6 18.0 8.3 6.4-- 5.3----- 0.0------------
2014-10-02 12.7 14.6 10.7 10.3-- 6.0----- 0.0------------
2014-10-01 14.8 17.5 12.8 11.3-- 6.3----- 0.0------------
2014-09-30 14.8 22.5 9.7 8.4-- 6.3----- 0.2------------
2014-09-29 11.9 23.0 3.9 0.9-- 5.7----- 0.0------------
2014-09-28 9.9 19.0 3.4 3.2-- 6.3----- 0.0------------
2014-09-27 13.4 19.0 9.8 9.6-- 6.7----- 0.0------------
2014-09-26 12.3 14.4 10.2 10.3-- 6.3----- 2.4------------
2014-09-25 11.4 15.9 6.3 5.7-- 6.7----- 2.4------------
2014-09-24 6.7 15.4 -0.5 -1.4-- 6.0----- 0.0------------
2014-09-23 9.9 13.9 7.4 6.1-- 6.3----- 0.8------------
2014-09-22 12.7 18.0 9.7 9.3-- 7.0----- 1.2------------
2014-09-21 18.0 22.5 15.3 14.8-- 6.0----- 11.2------------
2014-09-20 17.4 23.4 13.3 11.8-- 5.7----- 7.2------------
2014-09-19 16.3 23.0 10.9 8.8-- 6.7----- 0.7------------
2014-09-18 14.6 23.0 8.7 8.4-- 5.3----- 0.0------------
2014-09-17 15.4 23.9 9.2 8.4-- 4.7----- 0.0------------
2014-09-16 15.7 23.9 10.7 9.0-- 4.7----- 0.0------------
2014-09-15 16.6 24.9 9.9 8.3-- 5.3----- 0.0------------
2014-09-14 18.7 23.4 15.8 15.0-- 6.7----- 0.0------------
2014-09-13 15.7 20.0 11.2 11.0-- 5.3----- 0.0------------
2014-09-12 17.9 21.5 13.8 14.4-- 7.0----- 3.7------------
2014-09-11 13.9 17.5 11.2 10.8-- 7.0----- 15.4------------
2014-09-10 14.2 19.0 10.5 8.9-- 6.0----- 0.0------------
2014-09-09 16.8 22.0 14.3 12.8-- 6.0----- 0.0------------
2014-09-08 18.1 25.4 11.1 10.6-- 5.3----- 7.8------------
2014-09-07 17.4 26.9 9.9 9.3-- 4.7----- 0.0------------
2014-09-06 15.6 25.4 7.8 7.5-- 4.3----- 0.0------------
2014-09-05 16.5 24.4 9.7 8.4-- 5.0----- 0.0------------
2014-09-04 17.1 23.4 13.1 11.8-- 5.3----- 0.0------------
2014-09-03 15.4 21.0 11.2 11.3-- 6.0----- 0.0------------
2014-09-02 13.8 15.9 12.1 12.4-- 7.3----- 7.6------------
2014-09-01 15.4 17.5 13.3 13.6-- 7.0----- 28.5------------
2014-08-31 15.9 22.0 13.0 10.3-- 7.3----- 23.0------------
2014-08-30 18.4 24.9 15.3 14.8-- 5.7----- 8.5------------
2014-08-29 15.2 24.9 5.4 2.2-- 6.0----- 0.0------------
2014-08-28 13.3 22.5 5.8 4.2-- 5.7----- 0.0------------
2014-08-27 13.1 19.0 8.3 6.3-- 7.0----- 0.0------------
2014-08-26 13.0 15.9 10.2 8.1-- 7.3----- 0.6------------
2014-08-25 11.3 19.0 3.9 1.6-- 6.3----- 1.2------------
2014-08-24 14.3 18.0 11.7 9.4-- 6.7----- 0.2------------
2014-08-23 16.2 23.9 9.2 7.1-- 5.7----- 0.0------------
2014-08-22 14.0 23.1 2.9 2.8-- 5.3----- 0.5------------
2014-08-21 13.2 19.0 9.2 6.7-- 7.0----- 0.0------------
2014-08-20 14.9 20.0 9.2 5.7-- 6.0----- 0.4------------
2014-08-19 15.1 21.5 8.7 6.5-- 6.0----- 0.0------------
2014-08-18 18.0 24.9 10.7 12.0-- 6.7----- 0.0------------
2014-08-17 15.6 21.5 10.5 8.8-- 6.3----- 0.0------------
2014-08-16 15.5 20.0 12.2 10.4-- 6.7----- 3.8------------
2014-08-15 16.0 23.4 9.7 8.1-- 5.7----- 0.2------------
2014-08-14 17.4 21.5 15.6 14.3-- 6.3----- 0.0------------
2014-08-13 17.3 24.4 10.7 9.0-- 5.7----- 3.4------------
2014-08-12 18.4 24.9 12.8 11.3-- 5.3----- 0.0------------
407.7 ms

 

Źródłem pochodzenia danych jest Instytut Meteorologii i Gospodarki Wodnej – Państwowy Instytut Badawczy. Dane Instytutu Meteorologii i Gospodarki Wodnej – Państwowego Instytutu Badawczego zostały przetworzone.

Dane źródłowe można odnaleźć na stronie https://dane.imgw.pl